sensor_id;sensor_type;location;lat;lon;timestamp;temperature;humidity
4637;DHT22;2331;48.806;9.140;2023-01-06T00:00:02;12.90;1.00
4637;DHT22;2331;48.806;9.140;2023-01-06T00:02:29;13.00;1.00
4637;DHT22;2331;48.806;9.140;2023-01-06T00:04:56;13.00;1.00
4637;DHT22;2331;48.806;9.140;2023-01-06T00:07:24;13.00;1.00
4637;DHT22;2331;48.806;9.140;2023-01-06T00:09:51;13.10;1.00
4637;DHT22;2331;48.806;9.140;2023-01-06T00:12:17;13.10;1.00
4637;DHT22;2331;48.806;9.140;2023-01-06T00:14:44;13.20;1.00
4637;DHT22;2331;48.806;9.140;2023-01-06T00:17:12;13.10;1.00
4637;DHT22;2331;48.806;9.140;2023-01-06T00:19:39;13.20;1.00
4637;DHT22;2331;48.806;9.140;2023-01-06T00:22:05;13.20;1.00
4637;DHT22;2331;48.806;9.140;2023-01-06T00:24:33;13.20;1.00
4637;DHT22;2331;48.806;9.140;2023-01-06T00:27:00;13.20;1.00
4637;DHT22;2331;48.806;9.140;2023-01-06T00:29:27;13.20;1.00
4637;DHT22;2331;48.806;9.140;2023-01-06T00:31:54;13.20;1.00
4637;DHT22;2331;48.806;9.140;2023-01-06T00:34:20;13.20;1.00
4637;DHT22;2331;48.806;9.140;2023-01-06T00:36:47;13.20;1.00
4637;DHT22;2331;48.806;9.140;2023-01-06T00:39:14;13.20;1.00
4637;DHT22;2331;48.806;9.140;2023-01-06T00:41:42;13.20;1.00
4637;DHT22;2331;48.806;9.140;2023-01-06T00:44:26;13.30;1.00
4637;DHT22;2331;48.806;9.140;2023-01-06T00:46:53;13.30;1.00
4637;DHT22;2331;48.806;9.140;2023-01-06T00:49:19;13.30;1.00
4637;DHT22;2331;48.806;9.140;2023-01-06T00:51:47;13.20;1.00
4637;DHT22;2331;48.806;9.140;2023-01-06T00:54:14;13.20;1.00
4637;DHT22;2331;48.806;9.140;2023-01-06T00:56:44;13.20;1.00
4637;DHT22;2331;48.806;9.140;2023-01-06T00:59:12;13.20;1.00
4637;DHT22;2331;48.806;9.140;2023-01-06T01:01:41;13.20;1.00
4637;DHT22;2331;48.806;9.140;2023-01-06T01:04:08;13.10;1.00
4637;DHT22;2331;48.806;9.140;2023-01-06T01:06:36;13.00;1.00
4637;DHT22;2331;48.806;9.140;2023-01-06T01:09:05;13.00;1.00
4637;DHT22;2331;48.806;9.140;2023-01-06T01:11:32;13.00;1.00
4637;DHT22;2331;48.806;9.140;2023-01-06T01:14:19;13.00;1.00
4637;DHT22;2331;48.806;9.140;2023-01-06T01:16:46;13.00;1.00
4637;DHT22;2331;48.806;9.140;2023-01-06T01:19:13;13.00;1.00
4637;DHT22;2331;48.806;9.140;2023-01-06T01:21:40;12.90;1.00
4637;DHT22;2331;48.806;9.140;2023-01-06T01:24:07;13.00;1.00
4637;DHT22;2331;48.806;9.140;2023-01-06T01:26:33;13.00;1.00
4637;DHT22;2331;48.806;9.140;2023-01-06T01:29:00;13.00;1.00
4637;DHT22;2331;48.806;9.140;2023-01-06T01:31:29;13.00;1.00
4637;DHT22;2331;48.806;9.140;2023-01-06T01:33:55;13.00;1.00
4637;DHT22;2331;48.806;9.140;2023-01-06T01:36:22;13.00;1.00
4637;DHT22;2331;48.806;9.140;2023-01-06T01:38:49;13.10;1.00
4637;DHT22;2331;48.806;9.140;2023-01-06T01:41:17;13.10;1.00
4637;DHT22;2331;48.806;9.140;2023-01-06T01:43:46;13.20;1.00
4637;DHT22;2331;48.806;9.140;2023-01-06T01:46:15;13.20;1.00
4637;DHT22;2331;48.806;9.140;2023-01-06T01:48:44;13.20;1.00
4637;DHT22;2331;48.806;9.140;2023-01-06T01:51:14;13.30;1.00
4637;DHT22;2331;48.806;9.140;2023-01-06T01:53:46;13.30;1.00
4637;DHT22;2331;48.806;9.140;2023-01-06T01:56:16;13.30;1.00
4637;DHT22;2331;48.806;9.140;2023-01-06T01:58:49;13.30;1.00
4637;DHT22;2331;48.806;9.140;2023-01-06T02:01:18;13.30;1.00
4637;DHT22;2331;48.806;9.140;2023-01-06T02:03:46;13.30;1.00
4637;DHT22;2331;48.806;9.140;2023-01-06T02:06:15;13.30;1.00
4637;DHT22;2331;48.806;9.140;2023-01-06T02:08:46;13.30;1.00
4637;DHT22;2331;48.806;9.140;2023-01-06T02:11:16;13.20;1.00
4637;DHT22;2331;48.806;9.140;2023-01-06T02:13:44;13.30;1.00
4637;DHT22;2331;48.806;9.140;2023-01-06T02:16:16;13.30;1.00
4637;DHT22;2331;48.806;9.140;2023-01-06T02:18:54;13.30;1.00
4637;DHT22;2331;48.806;9.140;2023-01-06T02:21:45;13.30;1.00
4637;DHT22;2331;48.806;9.140;2023-01-06T02:24:52;13.30;1.00
4637;DHT22;2331;48.806;9.140;2023-01-06T02:27:47;13.30;1.00
4637;DHT22;2331;48.806;9.140;2023-01-06T02:33:21;13.30;1.00
4637;DHT22;2331;48.806;9.140;2023-01-06T02:35:59;13.40;1.00
4637;DHT22;2331;48.806;9.140;2023-01-06T02:38:41;13.40;1.00
4637;DHT22;2331;48.806;9.140;2023-01-06T02:41:31;13.40;1.00
4637;DHT22;2331;48.806;9.140;2023-01-06T02:44:02;13.40;1.00
4637;DHT22;2331;48.806;9.140;2023-01-06T02:46:52;13.40;1.00
4637;DHT22;2331;48.806;9.140;2023-01-06T02:49:27;13.40;1.00
4637;DHT22;2331;48.806;9.140;2023-01-06T02:51:58;13.40;1.00
4637;DHT22;2331;48.806;9.140;2023-01-06T02:54:31;13.50;1.00
4637;DHT22;2331;48.806;9.140;2023-01-06T02:57:06;13.50;1.00
4637;DHT22;2331;48.806;9.140;2023-01-06T02:59:40;13.50;1.00
4637;DHT22;2331;48.806;9.140;2023-01-06T03:02:09;13.40;1.00
4637;DHT22;2331;48.806;9.140;2023-01-06T03:04:41;13.40;1.00
4637;DHT22;2331;48.806;9.140;2023-01-06T03:07:10;13.30;1.00
4637;DHT22;2331;48.806;9.140;2023-01-06T03:09:39;13.30;1.00
4637;DHT22;2331;48.806;9.140;2023-01-06T03:12:10;13.40;1.00
4637;DHT22;2331;48.806;9.140;2023-01-06T03:14:44;13.40;1.00
4637;DHT22;2331;48.806;9.140;2023-01-06T03:17:12;13.30;1.00
4637;DHT22;2331;48.806;9.140;2023-01-06T03:19:41;13.30;1.00
4637;DHT22;2331;48.806;9.140;2023-01-06T03:22:08;13.40;1.00
4637;DHT22;2331;48.806;9.140;2023-01-06T03:24:36;13.40;1.00
4637;DHT22;2331;48.806;9.140;2023-01-06T03:27:04;13.50;1.00
4637;DHT22;2331;48.806;9.140;2023-01-06T03:29:31;13.40;1.00
4637;DHT22;2331;48.806;9.140;2023-01-06T03:32:00;13.40;1.00
4637;DHT22;2331;48.806;9.140;2023-01-06T03:34:42;13.40;1.00
4637;DHT22;2331;48.806;9.140;2023-01-06T03:37:22;13.40;1.00
4637;DHT22;2331;48.806;9.140;2023-01-06T03:39:57;13.40;1.00
4637;DHT22;2331;48.806;9.140;2023-01-06T03:42:29;13.30;1.00
4637;DHT22;2331;48.806;9.140;2023-01-06T03:45:32;13.40;1.00
4637;DHT22;2331;48.806;9.140;2023-01-06T03:48:06;13.40;1.00
4637;DHT22;2331;48.806;9.140;2023-01-06T03:50:39;13.40;1.00
4637;DHT22;2331;48.806;9.140;2023-01-06T03:53:16;13.40;1.00
4637;DHT22;2331;48.806;9.140;2023-01-06T03:55:47;13.30;1.00
4637;DHT22;2331;48.806;9.140;2023-01-06T03:58:17;13.30;1.00
4637;DHT22;2331;48.806;9.140;2023-01-06T04:00:46;13.30;1.00
4637;DHT22;2331;48.806;9.140;2023-01-06T04:03:13;13.20;1.00
4637;DHT22;2331;48.806;9.140;2023-01-06T04:05:42;13.20;1.00
4637;DHT22;2331;48.806;9.140;2023-01-06T04:08:09;13.10;1.00
4637;DHT22;2331;48.806;9.140;2023-01-06T04:10:35;13.10;1.00
4637;DHT22;2331;48.806;9.140;2023-01-06T04:13:02;13.10;1.00
4637;DHT22;2331;48.806;9.140;2023-01-06T04:15:28;13.10;1.00
4637;DHT22;2331;48.806;9.140;2023-01-06T04:17:55;13.00;1.00
4637;DHT22;2331;48.806;9.140;2023-01-06T04:20:23;13.00;1.00
4637;DHT22;2331;48.806;9.140;2023-01-06T04:22:53;12.90;1.00
4637;DHT22;2331;48.806;9.140;2023-01-06T04:25:20;12.90;1.00
4637;DHT22;2331;48.806;9.140;2023-01-06T04:27:47;12.80;1.00
4637;DHT22;2331;48.806;9.140;2023-01-06T04:30:15;12.70;1.00
4637;DHT22;2331;48.806;9.140;2023-01-06T04:32:41;12.70;1.00
4637;DHT22;2331;48.806;9.140;2023-01-06T04:35:09;12.70;1.00
4637;DHT22;2331;48.806;9.140;2023-01-06T04:37:36;12.70;1.00
4637;DHT22;2331;48.806;9.140;2023-01-06T04:40:05;12.80;1.00
4637;DHT22;2331;48.806;9.140;2023-01-06T04:42:33;12.70;1.00
4637;DHT22;2331;48.806;9.140;2023-01-06T04:45:20;12.60;1.00
4637;DHT22;2331;48.806;9.140;2023-01-06T04:47:47;12.50;1.00
4637;DHT22;2331;48.806;9.140;2023-01-06T04:50:13;12.50;1.00
4637;DHT22;2331;48.806;9.140;2023-01-06T04:52:40;12.50;1.00
4637;DHT22;2331;48.806;9.140;2023-01-06T04:55:08;12.50;1.00
4637;DHT22;2331;48.806;9.140;2023-01-06T04:57:35;12.50;1.00
4637;DHT22;2331;48.806;9.140;2023-01-06T05:00:02;12.50;1.00
4637;DHT22;2331;48.806;9.140;2023-01-06T05:02:29;12.50;1.00
4637;DHT22;2331;48.806;9.140;2023-01-06T05:04:56;12.60;1.00
4637;DHT22;2331;48.806;9.140;2023-01-06T05:07:23;12.60;1.00
4637;DHT22;2331;48.806;9.140;2023-01-06T05:09:49;12.60;1.00
4637;DHT22;2331;48.806;9.140;2023-01-06T05:12:17;12.60;1.00
4637;DHT22;2331;48.806;9.140;2023-01-06T05:14:44;12.60;1.00
4637;DHT22;2331;48.806;9.140;2023-01-06T05:17:11;12.60;1.00
4637;DHT22;2331;48.806;9.140;2023-01-06T05:19:37;12.50;1.00
4637;DHT22;2331;48.806;9.140;2023-01-06T05:22:06;12.50;1.00
4637;DHT22;2331;48.806;9.140;2023-01-06T05:24:32;12.50;1.00
4637;DHT22;2331;48.806;9.140;2023-01-06T05:26:59;12.50;1.00
4637;DHT22;2331;48.806;9.140;2023-01-06T05:29:27;12.50;1.00
4637;DHT22;2331;48.806;9.140;2023-01-06T05:31:54;12.50;1.00
4637;DHT22;2331;48.806;9.140;2023-01-06T05:34:20;12.50;1.00
4637;DHT22;2331;48.806;9.140;2023-01-06T05:36:47;12.50;1.00
4637;DHT22;2331;48.806;9.140;2023-01-06T05:39:14;12.50;1.00
4637;DHT22;2331;48.806;9.140;2023-01-06T05:41:40;12.60;1.00
4637;DHT22;2331;48.806;9.140;2023-01-06T05:44:07;12.50;1.00
4637;DHT22;2331;48.806;9.140;2023-01-06T05:46:35;12.60;1.00
4637;DHT22;2331;48.806;9.140;2023-01-06T05:49:02;12.60;1.00
4637;DHT22;2331;48.806;9.140;2023-01-06T05:51:29;12.50;1.00
4637;DHT22;2331;48.806;9.140;2023-01-06T05:53:55;12.60;1.00
4637;DHT22;2331;48.806;9.140;2023-01-06T05:56:22;12.50;1.00
4637;DHT22;2331;48.806;9.140;2023-01-06T05:58:51;12.50;1.00
4637;DHT22;2331;48.806;9.140;2023-01-06T06:01:20;12.50;1.00
4637;DHT22;2331;48.806;9.140;2023-01-06T06:03:48;12.50;1.00
4637;DHT22;2331;48.806;9.140;2023-01-06T06:06:16;12.50;1.00
4637;DHT22;2331;48.806;9.140;2023-01-06T06:08:43;12.50;1.00
4637;DHT22;2331;48.806;9.140;2023-01-06T06:11:11;12.50;1.00
4637;DHT22;2331;48.806;9.140;2023-01-06T06:13:43;12.50;1.00
4637;DHT22;2331;48.806;9.140;2023-01-06T06:16:11;12.40;1.00
4637;DHT22;2331;48.806;9.140;2023-01-06T06:18:39;12.40;1.00
4637;DHT22;2331;48.806;9.140;2023-01-06T06:21:08;12.40;1.00
4637;DHT22;2331;48.806;9.140;2023-01-06T06:23:35;12.50;1.00
4637;DHT22;2331;48.806;9.140;2023-01-06T06:26:02;12.50;1.00
4637;DHT22;2331;48.806;9.140;2023-01-06T06:28:29;12.40;1.00
4637;DHT22;2331;48.806;9.140;2023-01-06T06:31:02;12.40;1.00
4637;DHT22;2331;48.806;9.140;2023-01-06T06:33:29;12.40;1.00
4637;DHT22;2331;48.806;9.140;2023-01-06T06:35:56;12.30;1.00
4637;DHT22;2331;48.806;9.140;2023-01-06T06:38:24;12.30;1.00
4637;DHT22;2331;48.806;9.140;2023-01-06T06:40:51;12.30;1.00
4637;DHT22;2331;48.806;9.140;2023-01-06T06:43:18;12.30;1.00
4637;DHT22;2331;48.806;9.140;2023-01-06T06:45:45;12.30;1.00
4637;DHT22;2331;48.806;9.140;2023-01-06T06:48:12;12.30;1.00
4637;DHT22;2331;48.806;9.140;2023-01-06T06:50:39;12.30;1.00
4637;DHT22;2331;48.806;9.140;2023-01-06T06:53:06;12.30;1.00
4637;DHT22;2331;48.806;9.140;2023-01-06T06:55:34;12.30;1.00
4637;DHT22;2331;48.806;9.140;2023-01-06T06:58:01;12.30;1.00
4637;DHT22;2331;48.806;9.140;2023-01-06T07:00:28;12.30;1.00
4637;DHT22;2331;48.806;9.140;2023-01-06T07:02:55;12.20;1.00
4637;DHT22;2331;48.806;9.140;2023-01-06T07:05:22;12.30;1.00
4637;DHT22;2331;48.806;9.140;2023-01-06T07:07:50;12.30;1.00
4637;DHT22;2331;48.806;9.140;2023-01-06T07:10:16;12.30;1.00
4637;DHT22;2331;48.806;9.140;2023-01-06T07:12:44;12.40;1.00
4637;DHT22;2331;48.806;9.140;2023-01-06T07:15:11;12.40;1.00
4637;DHT22;2331;48.806;9.140;2023-01-06T07:17:38;12.30;1.00
4637;DHT22;2331;48.806;9.140;2023-01-06T07:20:06;12.30;1.00
4637;DHT22;2331;48.806;9.140;2023-01-06T07:22:36;12.30;1.00
4637;DHT22;2331;48.806;9.140;2023-01-06T07:25:03;12.20;1.00
4637;DHT22;2331;48.806;9.140;2023-01-06T07:27:30;12.20;1.00
4637;DHT22;2331;48.806;9.140;2023-01-06T07:29:58;12.20;1.00
4637;DHT22;2331;48.806;9.140;2023-01-06T07:32:25;12.20;1.00
4637;DHT22;2331;48.806;9.140;2023-01-06T07:34:51;12.10;1.00
4637;DHT22;2331;48.806;9.140;2023-01-06T07:37:18;12.10;1.00
4637;DHT22;2331;48.806;9.140;2023-01-06T07:39:45;12.20;1.00
4637;DHT22;2331;48.806;9.140;2023-01-06T07:42:11;12.30;1.00
4637;DHT22;2331;48.806;9.140;2023-01-06T07:44:38;12.20;1.00
4637;DHT22;2331;48.806;9.140;2023-01-06T07:47:06;12.30;1.00
4637;DHT22;2331;48.806;9.140;2023-01-06T07:49:35;12.20;1.00
4637;DHT22;2331;48.806;9.140;2023-01-06T07:52:01;12.30;1.00
4637;DHT22;2331;48.806;9.140;2023-01-06T07:54:28;12.30;1.00
4637;DHT22;2331;48.806;9.140;2023-01-06T07:56:55;12.30;1.00
4637;DHT22;2331;48.806;9.140;2023-01-06T07:59:22;12.30;1.00
4637;DHT22;2331;48.806;9.140;2023-01-06T08:01:48;12.40;1.00
4637;DHT22;2331;48.806;9.140;2023-01-06T08:04:16;12.40;1.00
4637;DHT22;2331;48.806;9.140;2023-01-06T08:06:43;12.40;1.00
4637;DHT22;2331;48.806;9.140;2023-01-06T08:09:10;12.30;1.00
4637;DHT22;2331;48.806;9.140;2023-01-06T08:11:36;12.30;1.00
4637;DHT22;2331;48.806;9.140;2023-01-06T08:14:03;12.30;1.00
4637;DHT22;2331;48.806;9.140;2023-01-06T08:16:30;12.30;1.00
4637;DHT22;2331;48.806;9.140;2023-01-06T08:18:56;12.30;1.00
4637;DHT22;2331;48.806;9.140;2023-01-06T08:21:24;12.10;1.00
4637;DHT22;2331;48.806;9.140;2023-01-06T08:23:51;12.20;1.00
4637;DHT22;2331;48.806;9.140;2023-01-06T08:26:18;12.10;1.00
4637;DHT22;2331;48.806;9.140;2023-01-06T08:28:45;12.00;1.00
4637;DHT22;2331;48.806;9.140;2023-01-06T08:31:13;11.80;1.00
4637;DHT22;2331;48.806;9.140;2023-01-06T08:33:41;11.80;1.00
4637;DHT22;2331;48.806;9.140;2023-01-06T08:36:10;11.70;1.00
4637;DHT22;2331;48.806;9.140;2023-01-06T08:38:39;11.50;1.00
4637;DHT22;2331;48.806;9.140;2023-01-06T08:41:06;11.60;1.00
4637;DHT22;2331;48.806;9.140;2023-01-06T08:43:33;11.50;1.00
4637;DHT22;2331;48.806;9.140;2023-01-06T08:46:01;11.50;1.00
4637;DHT22;2331;48.806;9.140;2023-01-06T08:48:28;11.50;1.00
4637;DHT22;2331;48.806;9.140;2023-01-06T08:50:55;11.50;1.00
4637;DHT22;2331;48.806;9.140;2023-01-06T08:53:22;11.50;1.00
4637;DHT22;2331;48.806;9.140;2023-01-06T08:55:50;11.50;1.00
4637;DHT22;2331;48.806;9.140;2023-01-06T08:58:17;11.60;1.00
4637;DHT22;2331;48.806;9.140;2023-01-06T09:00:44;11.60;1.00
4637;DHT22;2331;48.806;9.140;2023-01-06T09:03:10;11.60;1.00
4637;DHT22;2331;48.806;9.140;2023-01-06T09:05:37;11.70;1.00
4637;DHT22;2331;48.806;9.140;2023-01-06T09:08:04;11.70;1.00
4637;DHT22;2331;48.806;9.140;2023-01-06T09:10:30;11.70;1.00
4637;DHT22;2331;48.806;9.140;2023-01-06T09:12:59;11.70;1.00
4637;DHT22;2331;48.806;9.140;2023-01-06T09:15:25;11.80;1.00
4637;DHT22;2331;48.806;9.140;2023-01-06T09:17:52;11.80;1.00
4637;DHT22;2331;48.806;9.140;2023-01-06T09:20:20;11.80;1.00
4637;DHT22;2331;48.806;9.140;2023-01-06T09:22:46;11.80;1.00
4637;DHT22;2331;48.806;9.140;2023-01-06T09:25:13;11.90;1.00
4637;DHT22;2331;48.806;9.140;2023-01-06T09:27:40;11.90;1.00
4637;DHT22;2331;48.806;9.140;2023-01-06T09:30:09;12.00;1.00
4637;DHT22;2331;48.806;9.140;2023-01-06T09:32:36;11.90;1.00
4637;DHT22;2331;48.806;9.140;2023-01-06T09:35:03;11.90;1.00
4637;DHT22;2331;48.806;9.140;2023-01-06T09:37:29;12.00;1.00
4637;DHT22;2331;48.806;9.140;2023-01-06T09:39:56;11.90;1.00
4637;DHT22;2331;48.806;9.140;2023-01-06T09:42:32;12.00;1.00
4637;DHT22;2331;48.806;9.140;2023-01-06T09:45:05;12.00;1.00
4637;DHT22;2331;48.806;9.140;2023-01-06T09:47:37;12.00;1.00
4637;DHT22;2331;48.806;9.140;2023-01-06T09:50:08;12.00;1.00
4637;DHT22;2331;48.806;9.140;2023-01-06T09:52:40;12.00;1.00
4637;DHT22;2331;48.806;9.140;2023-01-06T09:55:14;12.10;1.00
4637;DHT22;2331;48.806;9.140;2023-01-06T09:57:44;12.20;1.00
4637;DHT22;2331;48.806;9.140;2023-01-06T10:00:21;12.30;1.00
4637;DHT22;2331;48.806;9.140;2023-01-06T10:02:53;12.40;1.00
4637;DHT22;2331;48.806;9.140;2023-01-06T10:05:27;12.50;1.00
4637;DHT22;2331;48.806;9.140;2023-01-06T10:08:02;12.50;1.00
4637;DHT22;2331;48.806;9.140;2023-01-06T10:10:42;12.60;1.00
4637;DHT22;2331;48.806;9.140;2023-01-06T10:13:23;12.60;1.00
4637;DHT22;2331;48.806;9.140;2023-01-06T10:16:01;12.60;1.00
4637;DHT22;2331;48.806;9.140;2023-01-06T10:18:39;12.60;1.00
4637;DHT22;2331;48.806;9.140;2023-01-06T10:21:14;12.60;1.00
4637;DHT22;2331;48.806;9.140;2023-01-06T10:24:17;12.70;1.00
4637;DHT22;2331;48.806;9.140;2023-01-06T10:26:53;12.70;1.00
4637;DHT22;2331;48.806;9.140;2023-01-06T10:29:24;12.90;1.00
4637;DHT22;2331;48.806;9.140;2023-01-06T10:31:54;12.80;1.00
4637;DHT22;2331;48.806;9.140;2023-01-06T10:34:25;12.80;1.00
4637;DHT22;2331;48.806;9.140;2023-01-06T10:36:55;12.80;1.00
4637;DHT22;2331;48.806;9.140;2023-01-06T10:39:28;12.80;1.00
4637;DHT22;2331;48.806;9.140;2023-01-06T10:42:04;12.90;1.00
4637;DHT22;2331;48.806;9.140;2023-01-06T10:44:54;13.00;1.00
4637;DHT22;2331;48.806;9.140;2023-01-06T10:47:24;13.10;1.00
4637;DHT22;2331;48.806;9.140;2023-01-06T10:49:53;13.20;1.00
4637;DHT22;2331;48.806;9.140;2023-01-06T10:52:21;13.10;1.00
4637;DHT22;2331;48.806;9.140;2023-01-06T10:54:49;13.10;1.00
4637;DHT22;2331;48.806;9.140;2023-01-06T10:57:21;13.10;1.00
4637;DHT22;2331;48.806;9.140;2023-01-06T11:00:13;13.10;1.00
4637;DHT22;2331;48.806;9.140;2023-01-06T11:02:45;13.10;1.00
4637;DHT22;2331;48.806;9.140;2023-01-06T11:05:15;13.10;1.00
4637;DHT22;2331;48.806;9.140;2023-01-06T11:07:52;13.20;1.00
4637;DHT22;2331;48.806;9.140;2023-01-06T11:10:26;13.20;1.00
4637;DHT22;2331;48.806;9.140;2023-01-06T11:12:54;13.40;1.00
4637;DHT22;2331;48.806;9.140;2023-01-06T11:15:27;13.40;1.00
4637;DHT22;2331;48.806;9.140;2023-01-06T11:17:54;13.40;1.00
4637;DHT22;2331;48.806;9.140;2023-01-06T11:20:33;13.40;1.00
4637;DHT22;2331;48.806;9.140;2023-01-06T11:23:19;13.40;1.00
4637;DHT22;2331;48.806;9.140;2023-01-06T11:25:59;13.30;1.00
4637;DHT22;2331;48.806;9.140;2023-01-06T11:28:26;13.30;1.00
4637;DHT22;2331;48.806;9.140;2023-01-06T11:30:54;13.30;1.00
4637;DHT22;2331;48.806;9.140;2023-01-06T11:33:25;13.40;1.00
4637;DHT22;2331;48.806;9.140;2023-01-06T11:35:55;13.30;1.00
4637;DHT22;2331;48.806;9.140;2023-01-06T11:38:23;13.40;1.00
4637;DHT22;2331;48.806;9.140;2023-01-06T11:40:51;13.50;1.00
4637;DHT22;2331;48.806;9.140;2023-01-06T11:43:20;13.50;1.00
4637;DHT22;2331;48.806;9.140;2023-01-06T11:45:53;13.50;1.00
4637;DHT22;2331;48.806;9.140;2023-01-06T11:48:24;13.30;1.00
4637;DHT22;2331;48.806;9.140;2023-01-06T11:50:55;13.40;1.00
4637;DHT22;2331;48.806;9.140;2023-01-06T11:53:23;13.40;1.00
4637;DHT22;2331;48.806;9.140;2023-01-06T11:55:57;13.50;1.00
4637;DHT22;2331;48.806;9.140;2023-01-06T11:58:34;13.40;1.00
4637;DHT22;2331;48.806;9.140;2023-01-06T12:01:08;13.40;1.00
4637;DHT22;2331;48.806;9.140;2023-01-06T12:03:39;13.40;1.00
4637;DHT22;2331;48.806;9.140;2023-01-06T12:06:18;13.50;1.00
4637;DHT22;2331;48.806;9.140;2023-01-06T12:08:50;13.60;1.00
4637;DHT22;2331;48.806;9.140;2023-01-06T12:11:22;13.60;1.00
4637;DHT22;2331;48.806;9.140;2023-01-06T12:13:52;13.60;1.00
4637;DHT22;2331;48.806;9.140;2023-01-06T12:16:22;13.50;1.00
4637;DHT22;2331;48.806;9.140;2023-01-06T12:18:50;13.60;1.00
4637;DHT22;2331;48.806;9.140;2023-01-06T12:21:25;13.50;1.00
4637;DHT22;2331;48.806;9.140;2023-01-06T12:23:54;13.60;1.00
4637;DHT22;2331;48.806;9.140;2023-01-06T12:26:23;13.60;1.00
4637;DHT22;2331;48.806;9.140;2023-01-06T12:28:53;13.50;1.00
4637;DHT22;2331;48.806;9.140;2023-01-06T12:31:24;13.50;1.00
4637;DHT22;2331;48.806;9.140;2023-01-06T12:33:57;13.60;1.00
4637;DHT22;2331;48.806;9.140;2023-01-06T12:36:32;13.60;1.00
4637;DHT22;2331;48.806;9.140;2023-01-06T12:39:03;13.60;1.00
4637;DHT22;2331;48.806;9.140;2023-01-06T12:41:35;13.60;1.00
4637;DHT22;2331;48.806;9.140;2023-01-06T12:44:10;13.70;1.00
4637;DHT22;2331;48.806;9.140;2023-01-06T12:46:46;13.80;1.00
4637;DHT22;2331;48.806;9.140;2023-01-06T12:49:21;13.70;1.00
4637;DHT22;2331;48.806;9.140;2023-01-06T12:51:55;13.70;1.00
4637;DHT22;2331;48.806;9.140;2023-01-06T12:54:27;13.70;1.00
4637;DHT22;2331;48.806;9.140;2023-01-06T12:57:10;13.80;1.00
4637;DHT22;2331;48.806;9.140;2023-01-06T12:59:49;13.80;1.00
4637;DHT22;2331;48.806;9.140;2023-01-06T13:02:36;13.90;1.00
4637;DHT22;2331;48.806;9.140;2023-01-06T13:05:27;13.90;1.00
4637;DHT22;2331;48.806;9.140;2023-01-06T13:08:06;14.00;1.00
4637;DHT22;2331;48.806;9.140;2023-01-06T13:10:42;14.00;1.00
4637;DHT22;2331;48.806;9.140;2023-01-06T13:13:25;14.10;1.00
4637;DHT22;2331;48.806;9.140;2023-01-06T13:15:59;14.10;1.00
4637;DHT22;2331;48.806;9.140;2023-01-06T13:18:30;14.00;1.00
4637;DHT22;2331;48.806;9.140;2023-01-06T13:21:03;14.00;1.00
4637;DHT22;2331;48.806;9.140;2023-01-06T13:23:42;14.00;1.00
4637;DHT22;2331;48.806;9.140;2023-01-06T13:26:29;13.80;1.00
4637;DHT22;2331;48.806;9.140;2023-01-06T13:29:06;13.80;1.00
4637;DHT22;2331;48.806;9.140;2023-01-06T13:34:41;13.80;1.00
4637;DHT22;2331;48.806;9.140;2023-01-06T13:37:24;13.90;1.00
4637;DHT22;2331;48.806;9.140;2023-01-06T13:39:55;13.90;1.00
4637;DHT22;2331;48.806;9.140;2023-01-06T13:42:31;13.90;1.00
4637;DHT22;2331;48.806;9.140;2023-01-06T13:45:00;13.80;1.00
4637;DHT22;2331;48.806;9.140;2023-01-06T13:47:27;13.80;1.00
4637;DHT22;2331;48.806;9.140;2023-01-06T13:49:57;13.90;1.00
4637;DHT22;2331;48.806;9.140;2023-01-06T13:52:27;13.80;1.00
4637;DHT22;2331;48.806;9.140;2023-01-06T13:55:04;13.80;1.00
4637;DHT22;2331;48.806;9.140;2023-01-06T13:57:37;13.80;1.00
4637;DHT22;2331;48.806;9.140;2023-01-06T14:00:21;13.80;1.00
4637;DHT22;2331;48.806;9.140;2023-01-06T14:05:52;13.70;1.00
4637;DHT22;2331;48.806;9.140;2023-01-06T14:08:20;13.80;1.00
4637;DHT22;2331;48.806;9.140;2023-01-06T14:10:55;13.80;1.00
4637;DHT22;2331;48.806;9.140;2023-01-06T14:13:27;13.70;1.00
4637;DHT22;2331;48.806;9.140;2023-01-06T14:15:56;13.80;1.00
4637;DHT22;2331;48.806;9.140;2023-01-06T14:18:37;13.70;1.00
4637;DHT22;2331;48.806;9.140;2023-01-06T14:21:17;13.70;1.00
4637;DHT22;2331;48.806;9.140;2023-01-06T14:23:57;13.60;1.00
4637;DHT22;2331;48.806;9.140;2023-01-06T14:26:52;13.60;1.00
4637;DHT22;2331;48.806;9.140;2023-01-06T14:29:45;13.50;1.00
4637;DHT22;2331;48.806;9.140;2023-01-06T14:35:15;13.60;1.00
4637;DHT22;2331;48.806;9.140;2023-01-06T14:37:44;13.70;1.00
4637;DHT22;2331;48.806;9.140;2023-01-06T14:40:17;13.70;1.00
4637;DHT22;2331;48.806;9.140;2023-01-06T14:42:46;13.70;1.00
4637;DHT22;2331;48.806;9.140;2023-01-06T14:45:16;13.70;1.00
4637;DHT22;2331;48.806;9.140;2023-01-06T14:47:45;13.70;1.00
4637;DHT22;2331;48.806;9.140;2023-01-06T14:50:16;13.60;1.00
4637;DHT22;2331;48.806;9.140;2023-01-06T14:52:48;13.60;1.00
4637;DHT22;2331;48.806;9.140;2023-01-06T14:55:17;13.60;1.00
4637;DHT22;2331;48.806;9.140;2023-01-06T14:57:46;13.60;1.00
4637;DHT22;2331;48.806;9.140;2023-01-06T15:00:15;13.50;1.00
4637;DHT22;2331;48.806;9.140;2023-01-06T15:02:44;13.40;1.00
4637;DHT22;2331;48.806;9.140;2023-01-06T15:05:19;13.40;1.00
4637;DHT22;2331;48.806;9.140;2023-01-06T15:07:58;13.40;1.00
4637;DHT22;2331;48.806;9.140;2023-01-06T15:10:26;13.40;1.00
4637;DHT22;2331;48.806;9.140;2023-01-06T15:12:54;13.40;1.00
4637;DHT22;2331;48.806;9.140;2023-01-06T15:15:23;13.40;1.00
4637;DHT22;2331;48.806;9.140;2023-01-06T15:17:51;13.30;1.00
4637;DHT22;2331;48.806;9.140;2023-01-06T15:20:26;13.30;1.00
4637;DHT22;2331;48.806;9.140;2023-01-06T15:22:54;13.30;1.00
4637;DHT22;2331;48.806;9.140;2023-01-06T15:25:22;13.30;1.00
4637;DHT22;2331;48.806;9.140;2023-01-06T15:27:50;13.20;1.00
4637;DHT22;2331;48.806;9.140;2023-01-06T15:30:22;13.20;1.00
4637;DHT22;2331;48.806;9.140;2023-01-06T15:32:49;13.20;1.00
4637;DHT22;2331;48.806;9.140;2023-01-06T15:35:20;13.20;1.00
4637;DHT22;2331;48.806;9.140;2023-01-06T15:37:47;13.10;1.00
4637;DHT22;2331;48.806;9.140;2023-01-06T15:40:18;13.20;1.00
4637;DHT22;2331;48.806;9.140;2023-01-06T15:42:47;13.20;1.00
4637;DHT22;2331;48.806;9.140;2023-01-06T15:45:24;13.20;1.00
4637;DHT22;2331;48.806;9.140;2023-01-06T15:47:54;13.10;1.00
4637;DHT22;2331;48.806;9.140;2023-01-06T15:50:24;13.20;1.00
4637;DHT22;2331;48.806;9.140;2023-01-06T15:52:53;13.30;1.00
4637;DHT22;2331;48.806;9.140;2023-01-06T15:55:23;13.30;1.00
4637;DHT22;2331;48.806;9.140;2023-01-06T15:57:54;13.30;1.00
4637;DHT22;2331;48.806;9.140;2023-01-06T16:00:24;13.40;1.00
4637;DHT22;2331;48.806;9.140;2023-01-06T16:02:51;13.40;1.00
4637;DHT22;2331;48.806;9.140;2023-01-06T16:05:35;13.30;1.00
4637;DHT22;2331;48.806;9.140;2023-01-06T16:08:05;13.30;1.00
4637;DHT22;2331;48.806;9.140;2023-01-06T16:10:34;13.30;1.00
4637;DHT22;2331;48.806;9.140;2023-01-06T16:13:17;13.30;1.00
4637;DHT22;2331;48.806;9.140;2023-01-06T16:15:49;13.30;1.00
4637;DHT22;2331;48.806;9.140;2023-01-06T16:18:24;13.40;1.00
4637;DHT22;2331;48.806;9.140;2023-01-06T16:20:51;13.40;1.00
4637;DHT22;2331;48.806;9.140;2023-01-06T16:23:25;13.40;1.00
4637;DHT22;2331;48.806;9.140;2023-01-06T16:26:05;13.40;1.00
4637;DHT22;2331;48.806;9.140;2023-01-06T16:28:32;13.40;1.00
4637;DHT22;2331;48.806;9.140;2023-01-06T16:31:05;13.40;1.00
4637;DHT22;2331;48.806;9.140;2023-01-06T16:33:35;13.40;1.00
4637;DHT22;2331;48.806;9.140;2023-01-06T16:36:09;13.40;1.00
4637;DHT22;2331;48.806;9.140;2023-01-06T16:38:37;13.40;1.00
4637;DHT22;2331;48.806;9.140;2023-01-06T16:41:04;13.50;1.00
4637;DHT22;2331;48.806;9.140;2023-01-06T16:43:31;13.40;1.00
4637;DHT22;2331;48.806;9.140;2023-01-06T16:45:58;13.40;1.00
4637;DHT22;2331;48.806;9.140;2023-01-06T16:48:27;13.40;1.00
4637;DHT22;2331;48.806;9.140;2023-01-06T16:50:53;13.40;1.00